createdAt,value
2022-12-12T00:00:58.637Z,48.05
2022-12-12T00:03:30.961Z,46.05
2022-12-12T00:05:58.982Z,38.72
2022-12-12T00:08:27.060Z,41.55
2022-12-12T00:10:54.958Z,40.28
2022-12-12T00:13:22.876Z,48.03
2022-12-12T00:15:52.150Z,49.58
2022-12-12T00:18:20.021Z,50.10
2022-12-12T00:20:53.022Z,56.20
2022-12-12T00:23:20.911Z,48.53
2022-12-12T00:25:56.269Z,48.00
2022-12-12T00:28:24.542Z,48.67
2022-12-12T00:30:54.127Z,41.95
2022-12-12T00:33:22.308Z,42.88
2022-12-12T00:35:51.246Z,52.50
2022-12-12T00:38:19.934Z,47.95
2022-12-12T00:40:47.941Z,46.20
2022-12-12T00:43:15.939Z,43.92
2022-12-12T00:45:43.827Z,46.75
2022-12-12T00:48:13.090Z,44.30
2022-12-12T00:50:40.993Z,39.92
2022-12-12T00:53:08.887Z,39.95
2022-12-12T00:55:36.830Z,44.60
2022-12-12T00:58:04.758Z,41.05
2022-12-12T01:00:33.533Z,42.53
2022-12-12T01:03:01.661Z,39.13
2022-12-12T01:05:30.986Z,42.35
2022-12-12T01:07:58.916Z,48.95
2022-12-12T01:10:27.487Z,40.22
2022-12-12T01:12:55.448Z,42.10
2022-12-12T01:15:23.610Z,41.28
2022-12-12T01:17:51.544Z,40.20
2022-12-12T01:20:21.799Z,40.58
2022-12-12T01:22:51.468Z,39.83
2022-12-12T01:25:21.059Z,39.22
2022-12-12T01:27:49.387Z,38.25
2022-12-12T01:30:20.836Z,40.70
2022-12-12T01:32:48.875Z,39.53
2022-12-12T01:35:16.807Z,43.10
2022-12-12T01:37:44.943Z,40.83
2022-12-12T01:40:17.320Z,39.85
2022-12-12T01:42:45.360Z,39.78
2022-12-12T01:45:46.705Z,38.65
2022-12-12T01:48:14.822Z,38.60
2022-12-12T01:50:44.486Z,41.88
2022-12-12T01:53:14.264Z,35.72
2022-12-12T01:55:43.674Z,30.60
2022-12-12T01:58:11.823Z,32.75
2022-12-12T02:00:40.433Z,33.03
2022-12-12T02:03:08.584Z,31.45
2022-12-12T02:05:41.476Z,30.08
2022-12-12T02:08:10.737Z,31.25
2022-12-12T02:10:39.017Z,29.92
2022-12-12T02:13:12.713Z,35.05
2022-12-12T02:15:45.086Z,34.92
2022-12-12T02:18:19.977Z,33.72
2022-12-12T02:21:01.204Z,32.83
2022-12-12T02:23:58.507Z,31.08
2022-12-12T02:27:01.372Z,27.88
2022-12-12T02:30:15.937Z,32.30
2022-12-12T02:33:02.577Z,27.20
2022-12-12T02:35:36.491Z,30.00
2022-12-12T02:38:10.796Z,31.17
2022-12-12T02:40:46.131Z,35.38
2022-12-12T02:43:20.164Z,33.65
2022-12-12T02:45:52.252Z,35.03
2022-12-12T02:48:27.827Z,44.20
2022-12-12T02:50:59.105Z,39.53
2022-12-12T02:53:27.081Z,34.55
2022-12-12T02:56:03.733Z,33.42
2022-12-12T02:58:32.487Z,30.30
2022-12-12T03:01:16.332Z,30.20
2022-12-12T03:04:08.679Z,38.97
2022-12-12T03:07:12.652Z,40.35
2022-12-12T03:10:00.557Z,37.75
2022-12-12T03:12:40.882Z,33.75
2022-12-12T03:15:15.155Z,90.68
2022-12-12T03:17:48.244Z,45.17
2022-12-12T03:20:23.906Z,38.53
2022-12-12T03:22:56.895Z,37.78
2022-12-12T03:25:31.573Z,35.45
2022-12-12T03:28:06.333Z,34.00
2022-12-12T03:30:41.368Z,40.22
2022-12-12T03:33:17.654Z,38.80
2022-12-12T03:35:50.446Z,42.85
2022-12-12T03:38:22.957Z,39.75
2022-12-12T03:40:53.459Z,42.35
2022-12-12T03:43:23.980Z,41.83
2022-12-12T03:45:58.425Z,41.70
2022-12-12T03:48:30.560Z,43.92
2022-12-12T03:51:04.735Z,39.05
2022-12-12T03:53:37.756Z,36.47
2022-12-12T03:56:11.509Z,41.58
2022-12-12T03:58:45.834Z,37.85
2022-12-12T04:01:15.524Z,33.88
2022-12-12T04:03:54.284Z,40.08
2022-12-12T04:06:32.323Z,34.88
2022-12-12T04:09:19.678Z,34.92
2022-12-12T04:12:15.581Z,36.92
2022-12-12T04:15:02.845Z,40.65
2022-12-12T04:17:37.395Z,46.05
2022-12-12T04:20:29.541Z,43.45
2022-12-12T04:23:16.116Z,45.47
2022-12-12T04:26:12.664Z,39.55
2022-12-12T04:28:44.875Z,44.63
2022-12-12T04:31:14.197Z,39.90
2022-12-12T04:33:47.799Z,43.63
2022-12-12T04:36:17.344Z,37.92
2022-12-12T04:38:48.608Z,42.92
2022-12-12T04:41:18.365Z,40.40
2022-12-12T04:43:49.093Z,45.65
2022-12-12T04:46:21.265Z,46.83
2022-12-12T04:48:53.705Z,43.55
2022-12-12T04:51:29.940Z,41.38
2022-12-12T04:54:04.106Z,38.58
2022-12-12T04:56:34.724Z,37.08
2022-12-12T04:59:04.593Z,38.53
2022-12-12T05:01:39.606Z,40.78
2022-12-12T05:04:14.015Z,40.03
2022-12-12T05:06:45.816Z,39.53
2022-12-12T05:09:17.492Z,40.25
2022-12-12T05:11:45.470Z,36.88
2022-12-12T05:14:16.474Z,44.25
2022-12-12T05:16:48.390Z,41.15
2022-12-12T05:19:16.395Z,45.65
2022-12-12T05:21:44.286Z,45.72
2022-12-12T05:24:12.400Z,51.60
2022-12-12T05:26:42.035Z,42.22
2022-12-12T05:29:09.950Z,43.22
2022-12-12T05:31:37.889Z,41.00
2022-12-12T05:34:06.174Z,43.95
2022-12-12T05:36:34.159Z,45.10
2022-12-12T05:39:02.128Z,43.60
2022-12-12T05:41:30.012Z,43.83
2022-12-12T05:43:59.304Z,43.22
2022-12-12T05:46:27.331Z,40.85
2022-12-12T05:48:55.807Z,46.45
2022-12-12T05:51:23.791Z,40.83
2022-12-12T05:53:51.723Z,43.80
2022-12-12T05:56:19.708Z,43.17
2022-12-12T05:58:47.592Z,47.85
2022-12-12T06:01:16.876Z,41.17
2022-12-12T06:03:44.770Z,39.47
2022-12-12T06:06:12.757Z,39.40
2022-12-12T06:08:40.675Z,48.30
2022-12-12T06:11:09.662Z,43.50
2022-12-12T06:13:38.457Z,43.15
2022-12-12T06:16:10.335Z,41.00
2022-12-12T06:18:39.639Z,42.45
2022-12-12T06:21:09.667Z,36.55
2022-12-12T06:23:38.465Z,36.20
2022-12-12T06:26:07.112Z,38.35
2022-12-12T06:28:35.168Z,41.03
2022-12-12T06:31:06.875Z,40.50
2022-12-12T06:33:41.290Z,37.53
2022-12-12T06:36:12.750Z,42.95
2022-12-12T06:38:41.866Z,37.83
2022-12-12T06:41:11.542Z,39.28
2022-12-12T06:43:39.616Z,39.53
2022-12-12T06:46:11.298Z,37.60
2022-12-12T06:48:40.687Z,37.20
2022-12-12T06:51:11.033Z,36.42
2022-12-12T06:53:39.182Z,34.30
2022-12-12T06:56:08.953Z,31.05
2022-12-12T06:58:37.215Z,34.97
2022-12-12T07:01:06.089Z,31.40
2022-12-12T07:03:34.266Z,35.92
2022-12-12T07:06:03.550Z,36.95
2022-12-12T07:08:31.659Z,35.85
2022-12-12T07:11:05.212Z,37.42
2022-12-12T07:13:33.474Z,46.63
2022-12-12T07:16:01.488Z,47.28
2022-12-12T07:18:29.597Z,32.25
2022-12-12T07:20:57.532Z,34.45
2022-12-12T07:23:27.470Z,38.35
2022-12-12T07:25:55.553Z,43.63
2022-12-12T07:28:23.530Z,62.00
2022-12-12T07:30:51.775Z,49.38
2022-12-12T07:33:20.116Z,40.72
2022-12-12T07:35:49.313Z,48.63
2022-12-12T07:38:17.163Z,54.90
2022-12-12T07:40:46.431Z,51.13
2022-12-12T07:43:14.353Z,48.17
2022-12-12T07:45:45.516Z,39.72
2022-12-12T07:48:14.581Z,39.00
2022-12-12T07:50:43.090Z,46.13
2022-12-12T07:53:11.041Z,39.97
2022-12-12T07:55:41.057Z,41.13
2022-12-12T07:58:10.459Z,38.42
2022-12-12T08:00:38.409Z,39.42
2022-12-12T08:03:06.469Z,36.60
2022-12-12T08:05:34.434Z,36.15
2022-12-12T08:08:02.446Z,35.42
2022-12-12T08:10:30.399Z,42.15
2022-12-12T08:12:58.565Z,38.85
2022-12-12T08:15:27.860Z,39.60
2022-12-12T08:17:55.784Z,40.63
2022-12-12T08:20:23.874Z,39.00
2022-12-12T08:22:51.789Z,41.00
2022-12-12T08:25:19.863Z,36.90
2022-12-12T08:27:47.944Z,34.00
2022-12-12T08:30:16.464Z,34.60
2022-12-12T08:32:45.730Z,42.35
2022-12-12T08:35:14.089Z,34.17
2022-12-12T08:37:42.280Z,33.97
2022-12-12T08:40:11.512Z,32.30
2022-12-12T08:42:39.820Z,31.20
2022-12-12T08:45:08.705Z,37.13
2022-12-12T08:47:36.629Z,36.03
2022-12-12T08:50:07.178Z,32.53
2022-12-12T08:52:35.409Z,35.95
2022-12-12T08:55:03.527Z,34.40
2022-12-12T08:57:31.443Z,30.90
2022-12-12T08:59:59.334Z,35.38
2022-12-12T09:02:27.743Z,34.28
2022-12-12T09:04:55.777Z,40.78
2022-12-12T09:07:25.361Z,64.43
2022-12-12T09:09:53.341Z,38.25
2022-12-12T09:12:21.270Z,37.95
2022-12-12T09:14:49.185Z,42.42
2022-12-12T09:17:17.114Z,36.85
2022-12-12T09:19:45.762Z,36.15
2022-12-12T09:22:13.739Z,36.58
2022-12-12T09:24:43.027Z,38.45
2022-12-12T09:27:11.003Z,39.88
2022-12-12T09:29:39.420Z,39.17
2022-12-12T09:32:07.664Z,47.42
2022-12-12T09:34:35.980Z,45.38
2022-12-12T09:37:03.892Z,44.17
2022-12-12T09:39:31.898Z,66.07
2022-12-12T09:42:11.081Z,49.08
2022-12-12T09:44:39.944Z,41.65
2022-12-12T09:47:14.635Z,42.13
2022-12-12T09:49:49.339Z,34.40
2022-12-12T09:52:20.339Z,32.80
2022-12-12T09:54:48.285Z,35.15
2022-12-12T09:57:27.210Z,32.47
2022-12-12T10:00:03.023Z,31.20
2022-12-12T10:03:02.317Z,34.83
2022-12-12T10:05:37.514Z,38.63
2022-12-12T10:08:13.050Z,37.67
2022-12-12T10:10:43.425Z,33.05
2022-12-12T10:13:17.952Z,34.10
2022-12-12T10:15:48.805Z,20.55
2022-12-12T10:18:22.041Z,33.70
2022-12-12T10:20:51.788Z,31.77
2022-12-12T10:23:28.675Z,30.55
2022-12-12T10:26:00.134Z,29.45
2022-12-12T10:28:31.748Z,18.92
2022-12-12T10:31:20.317Z,17.23
2022-12-12T10:34:06.138Z,16.17
2022-12-12T10:36:51.729Z,14.25
2022-12-12T10:39:28.018Z,12.10
2022-12-12T10:42:00.633Z,8.98
2022-12-12T10:44:47.946Z,17.63
2022-12-12T10:47:16.133Z,11.75
2022-12-12T10:49:44.142Z,11.98
2022-12-12T10:52:19.092Z,7.50
2022-12-12T10:55:00.928Z,7.18
2022-12-12T10:57:29.835Z,7.88
2022-12-12T11:00:00.138Z,9.95
2022-12-12T11:02:38.054Z,12.80
2022-12-12T11:05:16.500Z,15.63
2022-12-12T11:07:46.623Z,14.73
2022-12-12T11:10:26.870Z,13.57
2022-12-12T11:13:01.197Z,15.20
2022-12-12T11:15:38.842Z,29.88
2022-12-12T11:18:07.701Z,28.15
2022-12-12T11:20:35.663Z,29.65
2022-12-12T11:23:03.619Z,29.17
2022-12-12T11:25:33.322Z,44.65
2022-12-12T11:28:06.837Z,48.75
2022-12-12T11:30:40.450Z,40.42
2022-12-12T11:33:09.927Z,36.55
2022-12-12T11:35:47.045Z,21.70
2022-12-12T11:38:19.737Z,23.33
2022-12-12T11:40:58.532Z,31.65
2022-12-12T11:43:29.383Z,32.20
2022-12-12T11:46:05.281Z,26.52
2022-12-12T11:48:37.712Z,28.40
2022-12-12T11:51:05.868Z,49.08
2022-12-12T11:53:37.750Z,49.97
2022-12-12T11:56:18.676Z,64.75
2022-12-12T11:58:52.619Z,38.50
2022-12-12T12:01:31.976Z,71.82
2022-12-12T12:04:14.987Z,49.42
2022-12-12T12:07:00.792Z,35.03
2022-12-12T12:09:39.254Z,52.40
2022-12-12T12:12:12.592Z,28.85
2022-12-12T12:15:04.331Z,28.55
2022-12-12T12:17:58.085Z,43.65
2022-12-12T12:20:38.482Z,32.72
2022-12-12T12:23:15.491Z,34.25
2022-12-12T12:25:52.799Z,65.03
2022-12-12T12:28:42.095Z,29.52
2022-12-12T12:31:15.118Z,65.07
2022-12-12T12:33:58.134Z,38.85
2022-12-12T12:36:34.262Z,32.75
2022-12-12T12:39:10.375Z,29.58
2022-12-12T12:42:00.336Z,37.45
2022-12-12T12:44:38.993Z,32.00
2022-12-12T12:47:19.940Z,24.58
2022-12-12T12:49:53.399Z,33.60
2022-12-12T12:52:27.833Z,28.67
2022-12-12T12:54:59.061Z,27.75
2022-12-12T12:57:29.677Z,34.25
2022-12-12T13:00:01.346Z,27.45
2022-12-12T13:02:36.391Z,39.15
2022-12-12T13:05:11.224Z,28.63
2022-12-12T13:07:44.019Z,37.83
2022-12-12T13:10:20.862Z,34.95
2022-12-12T13:12:55.087Z,29.90
2022-12-12T13:15:26.900Z,31.67
2022-12-12T13:18:02.342Z,38.55
2022-12-12T13:20:34.831Z,34.92
2022-12-12T13:23:34.910Z,35.03
2022-12-12T13:26:10.612Z,37.33
2022-12-12T13:28:46.319Z,34.13
2022-12-12T13:31:56.167Z,40.10
2022-12-12T13:34:26.427Z,38.78
2022-12-12T13:36:57.362Z,42.40
2022-12-12T13:39:28.808Z,33.85
2022-12-12T13:42:02.796Z,65.28
2022-12-12T13:44:40.662Z,89.88
2022-12-12T13:47:45.775Z,47.85
2022-12-12T13:50:22.570Z,37.55
2022-12-12T13:53:19.936Z,42.55
2022-12-12T13:55:48.087Z,45.08
2022-12-12T13:58:35.346Z,45.80
2022-12-12T14:01:43.158Z,38.95
2022-12-12T14:04:27.299Z,32.22
2022-12-12T14:07:03.608Z,36.15
2022-12-12T14:09:47.640Z,34.17
2022-12-12T14:12:20.176Z,36.67
2022-12-12T14:14:54.502Z,34.15
2022-12-12T14:17:24.200Z,36.25
2022-12-12T14:19:54.434Z,33.47
2022-12-12T14:23:24.464Z,34.25
2022-12-12T14:25:54.667Z,40.03
2022-12-12T14:28:26.024Z,40.60
2022-12-12T14:30:58.192Z,44.33
2022-12-12T14:33:50.174Z,52.08
2022-12-12T14:36:49.882Z,59.53
2022-12-12T14:39:30.021Z,54.40
2022-12-12T14:42:00.367Z,77.15
2022-12-12T14:44:36.562Z,61.90
2022-12-12T14:47:08.695Z,45.78
2022-12-12T14:49:37.001Z,49.10
2022-12-12T14:52:05.397Z,48.58
2022-12-12T14:54:33.500Z,52.63
2022-12-12T14:57:03.328Z,47.95
2022-12-12T14:59:34.666Z,42.83
2022-12-12T15:02:14.027Z,44.13
2022-12-12T15:04:45.193Z,39.92
2022-12-12T15:07:25.065Z,47.60
2022-12-12T15:09:53.036Z,46.83
2022-12-12T15:12:24.399Z,48.97
2022-12-12T15:14:55.616Z,41.00
2022-12-12T15:17:27.446Z,51.15
2022-12-12T15:19:58.321Z,83.40
2022-12-12T15:22:31.625Z,60.85
2022-12-12T15:25:01.051Z,51.38
2022-12-12T15:27:32.603Z,46.53
2022-12-12T15:30:02.057Z,49.75
2022-12-12T15:32:31.152Z,50.78
2022-12-12T15:35:05.517Z,50.60
2022-12-12T15:37:34.220Z,40.05
2022-12-12T15:40:21.582Z,43.33
2022-12-12T15:42:54.859Z,43.75
2022-12-12T15:45:36.631Z,47.22
2022-12-12T15:48:06.464Z,40.33
2022-12-12T15:50:49.662Z,36.72
2022-12-12T15:53:24.601Z,36.35
2022-12-12T15:55:59.118Z,36.35
2022-12-12T15:58:32.023Z,35.40
2022-12-12T16:01:07.241Z,32.65
2022-12-12T16:03:35.462Z,33.40
2022-12-12T16:06:06.421Z,36.42
2022-12-12T16:08:47.240Z,37.22
2022-12-12T16:11:39.407Z,33.22
2022-12-12T16:14:25.760Z,33.83
2022-12-12T16:16:58.019Z,32.65
2022-12-12T16:19:35.215Z,33.67
2022-12-12T16:22:05.997Z,29.85
2022-12-12T16:24:45.236Z,28.45
2022-12-12T16:27:14.881Z,29.35
2022-12-12T16:29:44.587Z,26.48
2022-12-12T16:32:17.889Z,26.95
2022-12-12T16:34:46.238Z,24.20
2022-12-12T16:37:16.354Z,26.42
2022-12-12T16:39:44.938Z,35.08
2022-12-12T16:42:18.829Z,28.05
2022-12-12T16:44:48.229Z,46.72
2022-12-12T16:47:17.774Z,46.10
2022-12-12T16:49:46.237Z,27.50
2022-12-12T16:52:15.180Z,27.27
2022-12-12T16:54:46.934Z,25.55
2022-12-12T16:57:19.208Z,24.85
2022-12-12T16:59:48.522Z,25.55
2022-12-12T17:02:20.781Z,29.17
2022-12-12T17:04:49.576Z,24.63
2022-12-12T17:07:18.008Z,26.00
2022-12-12T17:09:46.134Z,28.10
2022-12-12T17:12:15.594Z,28.02
2022-12-12T17:14:43.680Z,24.13
2022-12-12T17:17:13.230Z,22.23
2022-12-12T17:19:41.252Z,21.08
2022-12-12T17:22:09.413Z,21.15
2022-12-12T17:24:37.494Z,19.58
2022-12-12T17:27:05.541Z,17.92
2022-12-12T17:29:33.458Z,20.10
2022-12-12T17:32:01.886Z,17.25
2022-12-12T17:34:31.234Z,56.95
2022-12-12T17:36:59.352Z,22.88
2022-12-12T17:39:27.256Z,19.65
2022-12-12T17:41:55.308Z,17.98
2022-12-12T17:44:24.044Z,17.55
2022-12-12T17:46:52.082Z,25.00
2022-12-12T17:49:20.415Z,18.13
2022-12-12T17:51:51.064Z,16.55
2022-12-12T17:54:19.269Z,16.45
2022-12-12T17:56:47.326Z,16.85
2022-12-12T17:59:15.403Z,18.73
2022-12-12T18:01:43.536Z,19.67
2022-12-12T18:04:11.997Z,17.55
2022-12-12T18:06:39.938Z,20.45
2022-12-12T18:09:09.399Z,20.00
2022-12-12T18:11:38.717Z,18.98
2022-12-12T18:14:09.015Z,17.73
2022-12-12T18:16:37.577Z,17.50
2022-12-12T18:19:05.689Z,24.50
2022-12-12T18:21:59.725Z,23.67
2022-12-12T18:24:29.382Z,48.42
2022-12-12T18:26:59.412Z,47.35
2022-12-12T18:29:28.424Z,21.15
2022-12-12T18:31:56.885Z,23.70
2022-12-12T18:34:25.724Z,21.85
2022-12-12T18:36:55.557Z,28.33
2022-12-12T18:39:27.804Z,28.33
2022-12-12T18:41:55.814Z,52.65
2022-12-12T18:44:23.766Z,26.92
2022-12-12T18:46:52.085Z,26.23
2022-12-12T18:49:20.388Z,13.48
2022-12-12T18:51:48.983Z,17.23
2022-12-12T18:54:17.497Z,12.13
2022-12-12T18:56:47.800Z,14.63
2022-12-12T18:59:17.315Z,15.45
2022-12-12T19:01:45.588Z,6.88
2022-12-12T19:04:21.209Z,50.03
2022-12-12T19:06:51.321Z,18.55
2022-12-12T19:09:20.820Z,20.60
2022-12-12T19:11:50.201Z,22.15
2022-12-12T19:14:18.610Z,28.38
2022-12-12T19:16:46.869Z,20.33
2022-12-12T19:19:15.240Z,17.13
2022-12-12T19:21:43.865Z,14.15
2022-12-12T19:24:13.091Z,30.10
2022-12-12T19:26:42.441Z,14.18
2022-12-12T19:29:13.990Z,10.93
2022-12-12T19:31:42.427Z,8.60
2022-12-12T19:34:12.892Z,15.18
2022-12-12T19:36:44.154Z,35.67
2022-12-12T19:39:12.977Z,12.00
2022-12-12T19:41:41.193Z,8.85
2022-12-12T19:44:12.611Z,9.82
2022-12-12T19:46:46.071Z,10.45
2022-12-12T19:49:16.324Z,10.82
2022-12-12T19:51:45.839Z,9.32
2022-12-12T19:54:17.100Z,9.10
2022-12-12T19:56:45.520Z,11.68
2022-12-12T19:59:15.035Z,13.77
2022-12-12T20:01:44.579Z,13.57
2022-12-12T20:04:16.899Z,13.65
2022-12-12T20:06:46.331Z,14.55
2022-12-12T20:09:16.671Z,23.90
2022-12-12T20:11:46.037Z,26.63
2022-12-12T20:14:15.504Z,22.63
2022-12-12T20:16:44.884Z,19.08
2022-12-12T20:19:13.670Z,16.30
2022-12-12T20:24:32.883Z,50.58
2022-12-12T20:27:02.950Z,44.03
2022-12-12T20:29:31.109Z,47.70
2022-12-12T20:32:01.439Z,32.58
2022-12-12T20:34:31.346Z,136.25
2022-12-12T20:36:59.351Z,54.67
2022-12-12T20:39:27.506Z,50.15
2022-12-12T20:41:56.905Z,36.63
2022-12-12T20:44:25.796Z,28.52
2022-12-12T20:46:53.911Z,24.98
2022-12-12T20:49:24.740Z,22.95
2022-12-12T20:51:56.465Z,70.88
2022-12-12T20:54:26.101Z,68.80
2022-12-12T20:56:54.886Z,58.83
2022-12-12T20:59:23.739Z,51.65
2022-12-12T21:01:52.540Z,34.53
2022-12-12T21:04:20.631Z,26.67
2022-12-12T21:06:54.126Z,28.98
2022-12-12T21:09:26.395Z,24.10
2022-12-12T21:11:55.689Z,27.13
2022-12-12T21:14:24.215Z,25.05
2022-12-12T21:16:52.825Z,28.85
2022-12-12T21:19:24.081Z,73.80
2022-12-12T21:21:56.356Z,56.10
2022-12-12T21:24:24.342Z,28.73
2022-12-12T21:26:52.748Z,33.25
2022-12-12T21:29:20.849Z,28.95
2022-12-12T21:31:52.541Z,32.58
2022-12-12T21:34:27.580Z,61.97
2022-12-12T21:36:57.516Z,53.50
2022-12-12T21:39:28.191Z,46.67
2022-12-12T21:41:56.820Z,38.40
2022-12-12T21:44:25.466Z,28.70
2022-12-12T21:46:53.530Z,30.75
2022-12-12T21:49:26.517Z,29.80
2022-12-12T21:51:57.873Z,26.90
2022-12-12T21:54:29.010Z,30.55
2022-12-12T21:56:57.210Z,34.60
2022-12-12T21:59:28.211Z,31.35
2022-12-12T22:01:57.273Z,28.55
2022-12-12T22:04:25.879Z,35.38
2022-12-12T22:06:53.812Z,35.55
2022-12-12T22:09:23.111Z,29.60
2022-12-12T22:11:52.070Z,30.58
2022-12-12T22:14:21.878Z,32.33
2022-12-12T22:16:50.256Z,36.22
2022-12-12T22:19:18.528Z,32.60
2022-12-12T22:21:48.259Z,32.58
2022-12-12T22:24:17.140Z,39.92
2022-12-12T22:26:48.387Z,34.33
2022-12-12T22:29:18.047Z,34.20
2022-12-12T22:31:52.037Z,33.95
2022-12-12T22:34:24.567Z,32.83
2022-12-12T22:36:53.964Z,31.08
2022-12-12T22:39:24.331Z,37.58
2022-12-12T22:41:55.517Z,32.40
2022-12-12T22:44:25.903Z,36.10
2022-12-12T22:46:55.712Z,31.73
2022-12-12T22:49:26.485Z,35.92
2022-12-12T22:51:56.076Z,32.90
2022-12-12T22:54:24.451Z,33.65
2022-12-12T22:56:54.210Z,34.50
2022-12-12T22:59:22.253Z,31.88
2022-12-12T23:01:50.131Z,31.75
2022-12-12T23:04:18.192Z,32.85
2022-12-12T23:06:46.124Z,29.60
2022-12-12T23:09:16.568Z,29.98
2022-12-12T23:11:45.777Z,33.42
2022-12-12T23:14:17.749Z,27.55
2022-12-12T23:16:46.463Z,33.55
2022-12-12T23:19:16.653Z,28.63
2022-12-12T23:21:44.723Z,30.02
2022-12-12T23:24:13.274Z,29.70
2022-12-12T23:26:41.432Z,32.42
2022-12-12T23:29:12.724Z,29.10
2022-12-12T23:31:42.116Z,28.67
2022-12-12T23:34:13.952Z,30.45
2022-12-12T23:36:42.297Z,37.38
2022-12-12T23:39:12.250Z,35.72
2022-12-12T23:41:40.550Z,37.92
2022-12-12T23:44:08.676Z,34.58
2022-12-12T23:46:37.248Z,40.58
2022-12-12T23:49:08.292Z,32.50
2022-12-12T23:51:38.120Z,34.83
2022-12-12T23:54:08.556Z,39.75
2022-12-12T23:56:36.772Z,35.83
2022-12-12T23:59:05.007Z,34.00
